sensor_id;sensor_type;location;lat;lon;timestamp;temperature;humidity
73360;DHT22;63092;43.582;19.528;2023-03-01T00:01:09;4.40;99.90
73360;DHT22;63092;43.582;19.528;2023-03-01T00:03:36;4.40;99.90
73360;DHT22;63092;43.582;19.528;2023-03-01T00:06:03;4.50;99.90
73360;DHT22;63092;43.582;19.528;2023-03-01T00:08:29;4.50;99.90
73360;DHT22;63092;43.582;19.528;2023-03-01T00:11:06;4.50;99.90
73360;DHT22;63092;43.582;19.528;2023-03-01T00:13:31;4.50;99.90
73360;DHT22;63092;43.582;19.528;2023-03-01T00:15:57;4.60;99.90
73360;DHT22;63092;43.582;19.528;2023-03-01T00:18:23;4.60;99.90
73360;DHT22;63092;43.582;19.528;2023-03-01T00:20:50;4.60;99.90
73360;DHT22;63092;43.582;19.528;2023-03-01T00:23:16;4.70;99.90
73360;DHT22;63092;43.582;19.528;2023-03-01T00:25:43;4.60;99.90
73360;DHT22;63092;43.582;19.528;2023-03-01T00:28:09;4.60;99.90
73360;DHT22;63092;43.582;19.528;2023-03-01T00:30:34;4.60;99.90
73360;DHT22;63092;43.582;19.528;2023-03-01T00:33:00;4.60;99.90
73360;DHT22;63092;43.582;19.528;2023-03-01T00:35:26;4.60;99.90
73360;DHT22;63092;43.582;19.528;2023-03-01T00:37:51;4.70;99.90
73360;DHT22;63092;43.582;19.528;2023-03-01T00:40:27;4.60;99.90
73360;DHT22;63092;43.582;19.528;2023-03-01T00:42:53;4.60;99.90
73360;DHT22;63092;43.582;19.528;2023-03-01T00:45:18;4.60;99.90
73360;DHT22;63092;43.582;19.528;2023-03-01T00:47:44;4.50;99.90
73360;DHT22;63092;43.582;19.528;2023-03-01T00:50:11;4.50;99.90
73360;DHT22;63092;43.582;19.528;2023-03-01T00:52:37;4.50;99.90
73360;DHT22;63092;43.582;19.528;2023-03-01T00:55:04;4.50;99.90
73360;DHT22;63092;43.582;19.528;2023-03-01T00:57:29;4.50;99.90
73360;DHT22;63092;43.582;19.528;2023-03-01T00:59:55;4.30;99.90
73360;DHT22;63092;43.582;19.528;2023-03-01T01:02:22;4.40;99.90
73360;DHT22;63092;43.582;19.528;2023-03-01T01:04:48;4.40;99.90
73360;DHT22;63092;43.582;19.528;2023-03-01T01:07:14;4.30;99.90
73360;DHT22;63092;43.582;19.528;2023-03-01T01:09:40;4.30;99.90
73360;DHT22;63092;43.582;19.528;2023-03-01T01:12:06;4.30;99.90
73360;DHT22;63092;43.582;19.528;2023-03-01T01:14:32;4.30;99.90
73360;DHT22;63092;43.582;19.528;2023-03-01T01:16:58;4.40;99.90
73360;DHT22;63092;43.582;19.528;2023-03-01T01:19:24;4.30;99.90
73360;DHT22;63092;43.582;19.528;2023-03-01T01:21:50;4.20;99.90
73360;DHT22;63092;43.582;19.528;2023-03-01T01:24:17;4.30;99.90
73360;DHT22;63092;43.582;19.528;2023-03-01T01:26:43;4.40;99.90
73360;DHT22;63092;43.582;19.528;2023-03-01T01:29:09;4.40;99.90
73360;DHT22;63092;43.582;19.528;2023-03-01T01:31:37;4.40;99.90
73360;DHT22;63092;43.582;19.528;2023-03-01T01:34:04;4.40;99.90
73360;DHT22;63092;43.582;19.528;2023-03-01T01:36:32;4.40;99.90
73360;DHT22;63092;43.582;19.528;2023-03-01T01:38:58;4.50;99.90
73360;DHT22;63092;43.582;19.528;2023-03-01T01:41:26;4.50;99.90
73360;DHT22;63092;43.582;19.528;2023-03-01T01:52:13;4.40;99.90
73360;DHT22;63092;43.582;19.528;2023-03-01T01:54:53;4.40;99.90
73360;DHT22;63092;43.582;19.528;2023-03-01T01:57:36;4.50;99.90
73360;DHT22;63092;43.582;19.528;2023-03-01T02:00:08;4.40;99.90
73360;DHT22;63092;43.582;19.528;2023-03-01T02:02:36;4.40;99.90
73360;DHT22;63092;43.582;19.528;2023-03-01T02:05:11;4.50;99.90
73360;DHT22;63092;43.582;19.528;2023-03-01T02:07:41;4.50;99.90
73360;DHT22;63092;43.582;19.528;2023-03-01T02:10:07;4.50;99.90
73360;DHT22;63092;43.582;19.528;2023-03-01T02:12:34;4.50;99.90
73360;DHT22;63092;43.582;19.528;2023-03-01T02:15:01;4.50;99.90
73360;DHT22;63092;43.582;19.528;2023-03-01T02:17:26;4.50;99.90
73360;DHT22;63092;43.582;19.528;2023-03-01T02:22:30;4.50;99.90
73360;DHT22;63092;43.582;19.528;2023-03-01T02:27:41;4.60;99.90
73360;DHT22;63092;43.582;19.528;2023-03-01T02:30:09;4.50;99.90
73360;DHT22;63092;43.582;19.528;2023-03-01T02:32:39;4.60;99.90
73360;DHT22;63092;43.582;19.528;2023-03-01T02:35:10;4.60;99.90
73360;DHT22;63092;43.582;19.528;2023-03-01T02:37:38;4.60;99.90
73360;DHT22;63092;43.582;19.528;2023-03-01T02:40:13;4.60;99.90
73360;DHT22;63092;43.582;19.528;2023-03-01T02:42:49;4.50;99.90
73360;DHT22;63092;43.582;19.528;2023-03-01T02:45:16;4.50;99.90
73360;DHT22;63092;43.582;19.528;2023-03-01T02:47:42;4.50;99.90
73360;DHT22;63092;43.582;19.528;2023-03-01T02:53:02;4.50;99.90
73360;DHT22;63092;43.582;19.528;2023-03-01T02:55:30;4.50;99.90
73360;DHT22;63092;43.582;19.528;2023-03-01T02:57:56;4.50;99.90
73360;DHT22;63092;43.582;19.528;2023-03-01T03:00:35;4.50;99.90
73360;DHT22;63092;43.582;19.528;2023-03-01T03:03:05;4.50;99.90
73360;DHT22;63092;43.582;19.528;2023-03-01T03:05:32;4.50;99.90
73360;DHT22;63092;43.582;19.528;2023-03-01T03:08:00;4.50;99.90
73360;DHT22;63092;43.582;19.528;2023-03-01T03:10:28;4.40;99.90
73360;DHT22;63092;43.582;19.528;2023-03-01T03:12:58;4.40;99.90
73360;DHT22;63092;43.582;19.528;2023-03-01T03:15:25;4.40;99.90
73360;DHT22;63092;43.582;19.528;2023-03-01T03:17:52;4.40;99.90
73360;DHT22;63092;43.582;19.528;2023-03-01T03:20:21;4.40;99.90
73360;DHT22;63092;43.582;19.528;2023-03-01T03:22:49;4.50;99.90
73360;DHT22;63092;43.582;19.528;2023-03-01T03:25:16;4.40;99.90
73360;DHT22;63092;43.582;19.528;2023-03-01T03:27:44;4.40;99.90
73360;DHT22;63092;43.582;19.528;2023-03-01T03:30:14;4.40;99.90
73360;DHT22;63092;43.582;19.528;2023-03-01T03:32:41;4.40;99.90
73360;DHT22;63092;43.582;19.528;2023-03-01T03:35:09;4.40;99.90
73360;DHT22;63092;43.582;19.528;2023-03-01T03:37:37;4.30;99.90
73360;DHT22;63092;43.582;19.528;2023-03-01T03:40:21;4.30;99.90
73360;DHT22;63092;43.582;19.528;2023-03-01T03:42:47;4.30;99.90
73360;DHT22;63092;43.582;19.528;2023-03-01T03:45:13;4.30;99.90
73360;DHT22;63092;43.582;19.528;2023-03-01T03:47:39;4.30;99.90
73360;DHT22;63092;43.582;19.528;2023-03-01T03:50:05;4.30;99.90
73360;DHT22;63092;43.582;19.528;2023-03-01T03:52:31;4.30;99.90
73360;DHT22;63092;43.582;19.528;2023-03-01T03:54:56;4.30;99.90
73360;DHT22;63092;43.582;19.528;2023-03-01T03:57:22;4.20;99.90
73360;DHT22;63092;43.582;19.528;2023-03-01T03:59:48;4.20;99.90
73360;DHT22;63092;43.582;19.528;2023-03-01T04:02:13;4.10;99.90
73360;DHT22;63092;43.582;19.528;2023-03-01T04:04:50;4.00;99.90
73360;DHT22;63092;43.582;19.528;2023-03-01T04:07:16;4.10;99.90
73360;DHT22;63092;43.582;19.528;2023-03-01T04:09:42;4.10;99.90
73360;DHT22;63092;43.582;19.528;2023-03-01T04:12:09;4.10;99.90
73360;DHT22;63092;43.582;19.528;2023-03-01T04:14:35;4.10;99.90
73360;DHT22;63092;43.582;19.528;2023-03-01T04:17:01;4.10;99.90
73360;DHT22;63092;43.582;19.528;2023-03-01T04:19:26;4.10;99.90
73360;DHT22;63092;43.582;19.528;2023-03-01T04:21:53;4.00;99.90
73360;DHT22;63092;43.582;19.528;2023-03-01T04:24:22;4.00;99.90
73360;DHT22;63092;43.582;19.528;2023-03-01T04:26:48;4.10;99.90
73360;DHT22;63092;43.582;19.528;2023-03-01T04:29:13;4.10;99.90
73360;DHT22;63092;43.582;19.528;2023-03-01T04:31:39;4.20;99.90
73360;DHT22;63092;43.582;19.528;2023-03-01T04:34:05;4.20;99.90
73360;DHT22;63092;43.582;19.528;2023-03-01T04:36:30;4.30;99.90
73360;DHT22;63092;43.582;19.528;2023-03-01T04:38:56;4.30;99.90
73360;DHT22;63092;43.582;19.528;2023-03-01T04:41:24;4.30;99.90
73360;DHT22;63092;43.582;19.528;2023-03-01T04:43:50;4.20;99.90
73360;DHT22;63092;43.582;19.528;2023-03-01T04:46:18;4.20;99.90
73360;DHT22;63092;43.582;19.528;2023-03-01T04:48:45;4.30;99.90
73360;DHT22;63092;43.582;19.528;2023-03-01T04:51:12;4.20;99.90
73360;DHT22;63092;43.582;19.528;2023-03-01T04:53:42;4.30;99.90
73360;DHT22;63092;43.582;19.528;2023-03-01T04:56:08;4.20;99.90
73360;DHT22;63092;43.582;19.528;2023-03-01T04:58:34;4.20;99.90
73360;DHT22;63092;43.582;19.528;2023-03-01T05:00:59;4.20;99.90
73360;DHT22;63092;43.582;19.528;2023-03-01T05:03:25;4.20;99.90
73360;DHT22;63092;43.582;19.528;2023-03-01T05:05:52;4.20;99.90
73360;DHT22;63092;43.582;19.528;2023-03-01T05:08:18;4.20;99.90
73360;DHT22;63092;43.582;19.528;2023-03-01T05:10:52;4.20;99.90
73360;DHT22;63092;43.582;19.528;2023-03-01T05:13:19;4.20;99.90
73360;DHT22;63092;43.582;19.528;2023-03-01T05:15:54;4.10;99.90
73360;DHT22;63092;43.582;19.528;2023-03-01T05:18:21;4.10;99.90
73360;DHT22;63092;43.582;19.528;2023-03-01T05:20:54;4.10;99.90
73360;DHT22;63092;43.582;19.528;2023-03-01T05:23:22;4.00;99.90
73360;DHT22;63092;43.582;19.528;2023-03-01T05:25:48;4.00;99.90
73360;DHT22;63092;43.582;19.528;2023-03-01T05:28:15;4.00;99.90
73360;DHT22;63092;43.582;19.528;2023-03-01T05:30:41;4.00;99.90
73360;DHT22;63092;43.582;19.528;2023-03-01T05:33:07;4.10;99.90
73360;DHT22;63092;43.582;19.528;2023-03-01T05:35:39;4.10;99.90
73360;DHT22;63092;43.582;19.528;2023-03-01T05:38:06;4.10;99.90
73360;DHT22;63092;43.582;19.528;2023-03-01T05:40:33;4.20;99.90
73360;DHT22;63092;43.582;19.528;2023-03-01T05:42:59;4.20;99.90
73360;DHT22;63092;43.582;19.528;2023-03-01T05:45:26;4.20;99.90
73360;DHT22;63092;43.582;19.528;2023-03-01T05:47:53;4.30;99.90
73360;DHT22;63092;43.582;19.528;2023-03-01T05:50:26;4.30;99.90
73360;DHT22;63092;43.582;19.528;2023-03-01T05:52:57;4.30;99.90
73360;DHT22;63092;43.582;19.528;2023-03-01T05:55:23;4.40;99.90
73360;DHT22;63092;43.582;19.528;2023-03-01T05:57:49;4.40;99.90
73360;DHT22;63092;43.582;19.528;2023-03-01T06:00:17;4.50;99.90
73360;DHT22;63092;43.582;19.528;2023-03-01T06:02:43;4.50;99.90
73360;DHT22;63092;43.582;19.528;2023-03-01T06:05:10;4.50;99.90
73360;DHT22;63092;43.582;19.528;2023-03-01T06:07:36;4.40;99.90
73360;DHT22;63092;43.582;19.528;2023-03-01T06:10:03;4.40;99.90
73360;DHT22;63092;43.582;19.528;2023-03-01T06:12:33;4.50;99.90
73360;DHT22;63092;43.582;19.528;2023-03-01T06:14:59;4.40;99.90
73360;DHT22;63092;43.582;19.528;2023-03-01T06:17:26;4.50;99.90
73360;DHT22;63092;43.582;19.528;2023-03-01T06:19:53;4.50;99.90
73360;DHT22;63092;43.582;19.528;2023-03-01T06:22:19;4.60;99.90
73360;DHT22;63092;43.582;19.528;2023-03-01T06:24:45;4.60;99.90
73360;DHT22;63092;43.582;19.528;2023-03-01T06:27:10;4.70;99.90
73360;DHT22;63092;43.582;19.528;2023-03-01T06:29:36;4.70;99.90
73360;DHT22;63092;43.582;19.528;2023-03-01T06:32:02;4.70;99.90
73360;DHT22;63092;43.582;19.528;2023-03-01T06:34:28;4.70;99.90
73360;DHT22;63092;43.582;19.528;2023-03-01T06:36:54;4.70;99.90
73360;DHT22;63092;43.582;19.528;2023-03-01T06:39:19;4.60;99.90
73360;DHT22;63092;43.582;19.528;2023-03-01T06:41:45;4.50;99.90
73360;DHT22;63092;43.582;19.528;2023-03-01T06:44:11;4.50;99.90
73360;DHT22;63092;43.582;19.528;2023-03-01T06:46:37;4.60;99.90
73360;DHT22;63092;43.582;19.528;2023-03-01T06:49:02;4.70;99.90
73360;DHT22;63092;43.582;19.528;2023-03-01T06:51:33;4.50;99.90
73360;DHT22;63092;43.582;19.528;2023-03-01T06:53:58;4.70;99.90
73360;DHT22;63092;43.582;19.528;2023-03-01T06:56:24;4.70;99.90
73360;DHT22;63092;43.582;19.528;2023-03-01T06:58:49;4.80;99.90
73360;DHT22;63092;43.582;19.528;2023-03-01T07:01:15;4.80;99.90
73360;DHT22;63092;43.582;19.528;2023-03-01T07:03:41;4.80;99.90
73360;DHT22;63092;43.582;19.528;2023-03-01T07:06:09;4.80;99.90
73360;DHT22;63092;43.582;19.528;2023-03-01T07:08:35;4.90;99.90
73360;DHT22;63092;43.582;19.528;2023-03-01T07:11:01;4.80;99.90
73360;DHT22;63092;43.582;19.528;2023-03-01T07:13:28;4.90;99.90
73360;DHT22;63092;43.582;19.528;2023-03-01T07:15:54;5.00;99.90
73360;DHT22;63092;43.582;19.528;2023-03-01T07:18:20;4.90;99.90
73360;DHT22;63092;43.582;19.528;2023-03-01T07:20:45;4.90;99.90
73360;DHT22;63092;43.582;19.528;2023-03-01T07:23:11;5.00;99.90
73360;DHT22;63092;43.582;19.528;2023-03-01T07:25:37;5.10;99.90
73360;DHT22;63092;43.582;19.528;2023-03-01T07:28:02;5.20;99.90
73360;DHT22;63092;43.582;19.528;2023-03-01T07:30:28;5.20;99.90
73360;DHT22;63092;43.582;19.528;2023-03-01T07:32:55;5.20;99.90
73360;DHT22;63092;43.582;19.528;2023-03-01T07:35:22;5.20;99.90
73360;DHT22;63092;43.582;19.528;2023-03-01T07:37:47;5.20;99.90
73360;DHT22;63092;43.582;19.528;2023-03-01T07:40:13;5.10;99.90
73360;DHT22;63092;43.582;19.528;2023-03-01T07:42:39;5.10;99.90
73360;DHT22;63092;43.582;19.528;2023-03-01T07:45:06;5.10;99.90
73360;DHT22;63092;43.582;19.528;2023-03-01T07:47:32;5.10;99.90
73360;DHT22;63092;43.582;19.528;2023-03-01T07:49:58;5.00;99.90
73360;DHT22;63092;43.582;19.528;2023-03-01T07:52:23;5.00;99.90
73360;DHT22;63092;43.582;19.528;2023-03-01T07:54:49;4.80;99.90
73360;DHT22;63092;43.582;19.528;2023-03-01T07:57:15;4.90;99.90
73360;DHT22;63092;43.582;19.528;2023-03-01T07:59:41;5.00;99.90
73360;DHT22;63092;43.582;19.528;2023-03-01T08:02:08;4.90;99.90
73360;DHT22;63092;43.582;19.528;2023-03-01T08:04:34;4.80;99.90
73360;DHT22;63092;43.582;19.528;2023-03-01T08:07:00;4.70;99.90
73360;DHT22;63092;43.582;19.528;2023-03-01T08:09:26;4.70;99.90
73360;DHT22;63092;43.582;19.528;2023-03-01T08:11:51;4.80;99.90
73360;DHT22;63092;43.582;19.528;2023-03-01T08:14:17;4.90;99.90
73360;DHT22;63092;43.582;19.528;2023-03-01T08:16:43;5.00;99.90
73360;DHT22;63092;43.582;19.528;2023-03-01T08:19:10;5.10;99.90
73360;DHT22;63092;43.582;19.528;2023-03-01T08:21:37;5.00;99.90
73360;DHT22;63092;43.582;19.528;2023-03-01T08:24:05;5.00;99.90
73360;DHT22;63092;43.582;19.528;2023-03-01T08:26:32;5.00;99.90
73360;DHT22;63092;43.582;19.528;2023-03-01T08:28:59;4.90;99.90
73360;DHT22;63092;43.582;19.528;2023-03-01T08:31:45;5.00;99.90
73360;DHT22;63092;43.582;19.528;2023-03-01T08:34:14;5.10;99.90
73360;DHT22;63092;43.582;19.528;2023-03-01T08:36:42;5.10;99.90
73360;DHT22;63092;43.582;19.528;2023-03-01T08:39:10;5.30;99.90
73360;DHT22;63092;43.582;19.528;2023-03-01T08:41:37;5.40;99.90
73360;DHT22;63092;43.582;19.528;2023-03-01T08:44:03;5.60;99.90
73360;DHT22;63092;43.582;19.528;2023-03-01T08:46:31;5.70;99.90
73360;DHT22;63092;43.582;19.528;2023-03-01T08:48:57;5.80;99.90
73360;DHT22;63092;43.582;19.528;2023-03-01T08:51:24;5.90;99.90
73360;DHT22;63092;43.582;19.528;2023-03-01T08:53:50;6.00;99.90
73360;DHT22;63092;43.582;19.528;2023-03-01T08:56:16;6.10;99.90
73360;DHT22;63092;43.582;19.528;2023-03-01T08:58:46;6.20;99.90
73360;DHT22;63092;43.582;19.528;2023-03-01T09:01:14;6.40;99.90
73360;DHT22;63092;43.582;19.528;2023-03-01T09:03:40;6.50;99.90
73360;DHT22;63092;43.582;19.528;2023-03-01T09:06:07;6.60;97.90
73360;DHT22;63092;43.582;19.528;2023-03-01T09:08:37;6.60;96.40
73360;DHT22;63092;43.582;19.528;2023-03-01T09:11:04;6.60;96.40
73360;DHT22;63092;43.582;19.528;2023-03-01T09:13:31;6.50;96.60
73360;DHT22;63092;43.582;19.528;2023-03-01T09:16:02;6.60;95.50
73360;DHT22;63092;43.582;19.528;2023-03-01T09:18:28;6.70;96.30
73360;DHT22;63092;43.582;19.528;2023-03-01T09:21:08;6.80;96.10
73360;DHT22;63092;43.582;19.528;2023-03-01T09:23:35;6.80;95.40
73360;DHT22;63092;43.582;19.528;2023-03-01T09:26:05;6.70;95.30
73360;DHT22;63092;43.582;19.528;2023-03-01T09:28:31;6.70;95.60
73360;DHT22;63092;43.582;19.528;2023-03-01T09:30:58;6.80;96.00
73360;DHT22;63092;43.582;19.528;2023-03-01T09:33:25;6.80;95.80
73360;DHT22;63092;43.582;19.528;2023-03-01T09:35:59;7.00;95.20
73360;DHT22;63092;43.582;19.528;2023-03-01T09:38:25;6.90;94.90
73360;DHT22;63092;43.582;19.528;2023-03-01T09:40:51;7.00;94.80
73360;DHT22;63092;43.582;19.528;2023-03-01T09:46:04;6.90;94.70
73360;DHT22;63092;43.582;19.528;2023-03-01T09:48:37;6.60;96.40
73360;DHT22;63092;43.582;19.528;2023-03-01T09:51:08;6.40;97.10
73360;DHT22;63092;43.582;19.528;2023-03-01T09:53:38;6.60;97.20
73360;DHT22;63092;43.582;19.528;2023-03-01T09:56:15;6.70;96.90
73360;DHT22;63092;43.582;19.528;2023-03-01T10:02:11;7.00;96.50
73360;DHT22;63092;43.582;19.528;2023-03-01T10:04:28;7.00;95.90
73360;DHT22;63092;43.582;19.528;2023-03-01T10:09:39;7.10;95.70
73360;DHT22;63092;43.582;19.528;2023-03-01T10:12:12;6.90;95.60
73360;DHT22;63092;43.582;19.528;2023-03-01T10:14:40;7.00;95.40
73360;DHT22;63092;43.582;19.528;2023-03-01T10:17:12;7.20;95.20
73360;DHT22;63092;43.582;19.528;2023-03-01T10:19:45;7.30;95.00
73360;DHT22;63092;43.582;19.528;2023-03-01T10:24:40;7.40;95.70
73360;DHT22;63092;43.582;19.528;2023-03-01T10:32:18;7.30;94.80
73360;DHT22;63092;43.582;19.528;2023-03-01T10:34:44;7.40;95.20
73360;DHT22;63092;43.582;19.528;2023-03-01T10:37:13;7.20;94.30
73360;DHT22;63092;43.582;19.528;2023-03-01T10:42:34;7.70;94.80
73360;DHT22;63092;43.582;19.528;2023-03-01T10:45:16;7.70;93.20
73360;DHT22;63092;43.582;19.528;2023-03-01T10:47:42;7.70;92.70
73360;DHT22;63092;43.582;19.528;2023-03-01T10:50:20;7.90;92.70
73360;DHT22;63092;43.582;19.528;2023-03-01T10:53:01;8.40;90.40
73360;DHT22;63092;43.582;19.528;2023-03-01T10:55:40;8.50;90.60
73360;DHT22;63092;43.582;19.528;2023-03-01T11:00:33;8.50;88.50
73360;DHT22;63092;43.582;19.528;2023-03-01T11:05:25;8.30;90.20
73360;DHT22;63092;43.582;19.528;2023-03-01T11:07:55;8.20;92.20
73360;DHT22;63092;43.582;19.528;2023-03-01T11:10:33;8.00;91.40
73360;DHT22;63092;43.582;19.528;2023-03-01T11:13:26;8.00;92.10
73360;DHT22;63092;43.582;19.528;2023-03-01T11:16:10;8.10;92.30
73360;DHT22;63092;43.582;19.528;2023-03-01T11:18:37;8.00;92.10
73360;DHT22;63092;43.582;19.528;2023-03-01T11:21:03;8.00;92.90
73360;DHT22;63092;43.582;19.528;2023-03-01T11:23:30;7.80;92.70
73360;DHT22;63092;43.582;19.528;2023-03-01T11:26:07;7.90;92.60
73360;DHT22;63092;43.582;19.528;2023-03-01T11:28:35;7.90;92.40
73360;DHT22;63092;43.582;19.528;2023-03-01T11:33:49;8.00;92.40
73360;DHT22;63092;43.582;19.528;2023-03-01T11:36:44;8.00;92.80
73360;DHT22;63092;43.582;19.528;2023-03-01T11:42:00;7.80;93.60
73360;DHT22;63092;43.582;19.528;2023-03-01T11:44:29;7.80;92.60
73360;DHT22;63092;43.582;19.528;2023-03-01T11:53:26;7.80;92.90
73360;DHT22;63092;43.582;19.528;2023-03-01T11:56:16;7.70;93.20
73360;DHT22;63092;43.582;19.528;2023-03-01T12:01:52;7.60;95.40
73360;DHT22;63092;43.582;19.528;2023-03-01T12:07:09;7.60;94.90
73360;DHT22;63092;43.582;19.528;2023-03-01T12:09:53;7.60;94.60
73360;DHT22;63092;43.582;19.528;2023-03-01T12:12:52;7.50;95.10
73360;DHT22;63092;43.582;19.528;2023-03-01T12:18:35;7.70;95.50
73360;DHT22;63092;43.582;19.528;2023-03-01T12:24:04;7.50;95.30
73360;DHT22;63092;43.582;19.528;2023-03-01T12:27:22;7.30;96.40
73360;DHT22;63092;43.582;19.528;2023-03-01T12:30:35;7.40;97.10
73360;DHT22;63092;43.582;19.528;2023-03-01T12:35:49;7.20;97.00
73360;DHT22;63092;43.582;19.528;2023-03-01T12:49:30;7.40;98.20
73360;DHT22;63092;43.582;19.528;2023-03-01T12:52:04;7.40;96.60
73360;DHT22;63092;43.582;19.528;2023-03-01T12:54:36;7.40;96.30
73360;DHT22;63092;43.582;19.528;2023-03-01T13:02:23;7.40;96.60
73360;DHT22;63092;43.582;19.528;2023-03-01T13:07:55;7.40;96.60
73360;DHT22;63092;43.582;19.528;2023-03-01T13:10:34;7.30;96.10
73360;DHT22;63092;43.582;19.528;2023-03-01T13:15:45;7.10;97.20
73360;DHT22;63092;43.582;19.528;2023-03-01T13:26:09;7.20;97.00
73360;DHT22;63092;43.582;19.528;2023-03-01T13:31:09;7.10;97.50
73360;DHT22;63092;43.582;19.528;2023-03-01T13:33:48;7.00;97.90
73360;DHT22;63092;43.582;19.528;2023-03-01T13:46:38;6.80;99.20
73360;DHT22;63092;43.582;19.528;2023-03-01T13:49:04;6.70;99.20
73360;DHT22;63092;43.582;19.528;2023-03-01T13:51:30;6.70;99.50
73360;DHT22;63092;43.582;19.528;2023-03-01T13:53:57;6.70;99.40
73360;DHT22;63092;43.582;19.528;2023-03-01T13:56:28;6.80;99.40
73360;DHT22;63092;43.582;19.528;2023-03-01T13:59:19;6.70;99.40
73360;DHT22;63092;43.582;19.528;2023-03-01T14:01:59;6.80;99.50
73360;DHT22;63092;43.582;19.528;2023-03-01T14:04:28;6.90;99.90
73360;DHT22;63092;43.582;19.528;2023-03-01T14:09:43;7.00;99.30
73360;DHT22;63092;43.582;19.528;2023-03-01T14:12:15;7.00;99.00
73360;DHT22;63092;43.582;19.528;2023-03-01T14:20:21;7.00;98.90
73360;DHT22;63092;43.582;19.528;2023-03-01T14:22:49;7.00;99.10
73360;DHT22;63092;43.582;19.528;2023-03-01T14:27:56;6.80;99.10
73360;DHT22;63092;43.582;19.528;2023-03-01T14:30:30;6.80;99.90
73360;DHT22;63092;43.582;19.528;2023-03-01T14:32:59;6.80;99.90
73360;DHT22;63092;43.582;19.528;2023-03-01T14:35:33;6.90;99.90
73360;DHT22;63092;43.582;19.528;2023-03-01T14:37:59;7.00;99.80
73360;DHT22;63092;43.582;19.528;2023-03-01T14:40:29;7.00;99.90
73360;DHT22;63092;43.582;19.528;2023-03-01T14:42:58;7.00;99.70
73360;DHT22;63092;43.582;19.528;2023-03-01T14:45:26;6.90;99.90
73360;DHT22;63092;43.582;19.528;2023-03-01T14:47:53;6.90;99.90
73360;DHT22;63092;43.582;19.528;2023-03-01T14:52:47;6.90;99.90
73360;DHT22;63092;43.582;19.528;2023-03-01T14:55:17;6.90;99.90
73360;DHT22;63092;43.582;19.528;2023-03-01T14:57:50;6.90;99.90
73360;DHT22;63092;43.582;19.528;2023-03-01T15:00:23;6.90;99.90
73360;DHT22;63092;43.582;19.528;2023-03-01T15:02:52;6.90;99.90
73360;DHT22;63092;43.582;19.528;2023-03-01T15:05:30;6.90;99.90
73360;DHT22;63092;43.582;19.528;2023-03-01T15:08:01;6.90;99.90
73360;DHT22;63092;43.582;19.528;2023-03-01T15:10:33;6.80;99.90
73360;DHT22;63092;43.582;19.528;2023-03-01T15:13:22;6.70;99.90
73360;DHT22;63092;43.582;19.528;2023-03-01T15:15:50;6.60;99.90
73360;DHT22;63092;43.582;19.528;2023-03-01T15:18:18;6.60;99.90
73360;DHT22;63092;43.582;19.528;2023-03-01T15:20:45;6.60;99.90
73360;DHT22;63092;43.582;19.528;2023-03-01T15:23:21;6.50;99.90
73360;DHT22;63092;43.582;19.528;2023-03-01T15:25:48;6.40;99.90
73360;DHT22;63092;43.582;19.528;2023-03-01T15:28:26;6.40;99.90
73360;DHT22;63092;43.582;19.528;2023-03-01T15:30:55;6.30;99.90
73360;DHT22;63092;43.582;19.528;2023-03-01T15:35:57;6.30;99.90
73360;DHT22;63092;43.582;19.528;2023-03-01T15:40:59;6.30;99.90
73360;DHT22;63092;43.582;19.528;2023-03-01T15:43:45;6.30;99.90
73360;DHT22;63092;43.582;19.528;2023-03-01T15:46:21;6.30;99.90
73360;DHT22;63092;43.582;19.528;2023-03-01T15:48:55;6.30;99.90
73360;DHT22;63092;43.582;19.528;2023-03-01T15:51:31;6.30;99.90
73360;DHT22;63092;43.582;19.528;2023-03-01T15:53:59;6.40;99.90
73360;DHT22;63092;43.582;19.528;2023-03-01T15:56:25;6.40;99.90
73360;DHT22;63092;43.582;19.528;2023-03-01T15:58:51;6.50;99.90
73360;DHT22;63092;43.582;19.528;2023-03-01T16:01:17;6.40;99.90
73360;DHT22;63092;43.582;19.528;2023-03-01T16:03:43;6.30;99.90
73360;DHT22;63092;43.582;19.528;2023-03-01T16:06:10;6.20;99.90
73360;DHT22;63092;43.582;19.528;2023-03-01T16:08:37;6.10;99.90
73360;DHT22;63092;43.582;19.528;2023-03-01T16:11:04;6.20;99.90
73360;DHT22;63092;43.582;19.528;2023-03-01T16:13:31;6.20;99.90
73360;DHT22;63092;43.582;19.528;2023-03-01T16:15:58;6.30;99.90
73360;DHT22;63092;43.582;19.528;2023-03-01T16:18:24;6.30;99.90
73360;DHT22;63092;43.582;19.528;2023-03-01T16:20:49;6.20;99.90
73360;DHT22;63092;43.582;19.528;2023-03-01T16:23:15;6.20;99.90
73360;DHT22;63092;43.582;19.528;2023-03-01T16:25:41;6.20;99.90
73360;DHT22;63092;43.582;19.528;2023-03-01T16:28:07;6.10;99.90
73360;DHT22;63092;43.582;19.528;2023-03-01T16:30:36;6.20;99.90
73360;DHT22;63092;43.582;19.528;2023-03-01T16:33:02;6.20;99.90
73360;DHT22;63092;43.582;19.528;2023-03-01T16:35:32;6.20;99.90
73360;DHT22;63092;43.582;19.528;2023-03-01T16:37:59;6.20;99.90
73360;DHT22;63092;43.582;19.528;2023-03-01T16:40:29;6.20;99.90
73360;DHT22;63092;43.582;19.528;2023-03-01T16:42:55;6.10;99.90
73360;DHT22;63092;43.582;19.528;2023-03-01T16:45:24;6.10;99.90
73360;DHT22;63092;43.582;19.528;2023-03-01T16:47:53;6.20;99.90
73360;DHT22;63092;43.582;19.528;2023-03-01T16:50:19;6.10;99.90
73360;DHT22;63092;43.582;19.528;2023-03-01T16:52:45;6.10;99.90
73360;DHT22;63092;43.582;19.528;2023-03-01T16:55:10;6.20;99.90
73360;DHT22;63092;43.582;19.528;2023-03-01T16:57:37;6.20;99.90
73360;DHT22;63092;43.582;19.528;2023-03-01T17:00:07;6.10;99.90
73360;DHT22;63092;43.582;19.528;2023-03-01T17:02:34;6.10;99.90
73360;DHT22;63092;43.582;19.528;2023-03-01T17:05:01;6.10;99.90
73360;DHT22;63092;43.582;19.528;2023-03-01T17:07:29;6.00;99.90
73360;DHT22;63092;43.582;19.528;2023-03-01T17:10:02;5.90;99.90
73360;DHT22;63092;43.582;19.528;2023-03-01T17:12:28;5.90;99.90
73360;DHT22;63092;43.582;19.528;2023-03-01T17:14:53;5.90;99.90
73360;DHT22;63092;43.582;19.528;2023-03-01T17:17:19;6.00;99.90
73360;DHT22;63092;43.582;19.528;2023-03-01T17:19:45;6.00;99.90
73360;DHT22;63092;43.582;19.528;2023-03-01T17:22:11;6.10;99.90
73360;DHT22;63092;43.582;19.528;2023-03-01T17:24:39;6.10;99.90
73360;DHT22;63092;43.582;19.528;2023-03-01T17:27:06;6.10;99.90
73360;DHT22;63092;43.582;19.528;2023-03-01T17:29:32;6.10;99.90
73360;DHT22;63092;43.582;19.528;2023-03-01T17:31:58;6.00;99.90
73360;DHT22;63092;43.582;19.528;2023-03-01T17:34:24;6.00;99.90
73360;DHT22;63092;43.582;19.528;2023-03-01T17:36:50;5.90;99.90
73360;DHT22;63092;43.582;19.528;2023-03-01T17:39:20;5.90;99.90
73360;DHT22;63092;43.582;19.528;2023-03-01T17:41:51;6.00;99.90
73360;DHT22;63092;43.582;19.528;2023-03-01T17:44:16;5.90;99.90
73360;DHT22;63092;43.582;19.528;2023-03-01T17:46:42;5.90;99.90
73360;DHT22;63092;43.582;19.528;2023-03-01T17:49:08;5.80;99.90